Time;durP1;ratioP1;P1;durP2;ratioP2;P2;SDS_P1;SDS_P2;PMS_P1;PMS_P2;Temp;Humidity;BMP_temperature;BMP_pressure;BME280_temperature;BME280_humidity;BME280_pressure;Samples;Min_cycle;Max_cycle;Signal;HPM_P1;HPM_P2
2021/09/03 00:02:03;;;;;;;4.05;3.50;;;19.30;95.90;;;;;;5095494;28;20047;-77
2021/09/03 00:04:29;;;;;;;5.50;3.65;;;19.20;96.00;;;;;;5096918;28;20111;-77
2021/09/03 00:06:55;;;;;;;3.80;3.50;;;19.20;96.10;;;;;;5096693;28;20099;-76
2021/09/03 00:09:21;;;;;;;3.65;3.35;;;19.20;96.00;;;;;;5096655;28;20066;-76
2021/09/03 00:11:47;;;;;;;3.67;3.38;;;19.20;96.00;;;;;;5096668;28;20023;-76
2021/09/03 00:14:12;;;;;;;3.88;3.58;;;19.20;96.00;;;;;;5096259;28;20511;-77
2021/09/03 00:16:38;;;;;;;3.45;3.00;;;19.20;96.00;;;;;;5096383;28;20104;-76
2021/09/03 00:19:05;;;;;;;4.65;3.58;;;19.10;95.90;;;;;;5095222;28;20028;-77
2021/09/03 00:21:31;;;;;;;4.10;3.72;;;19.10;96.10;;;;;;5095041;28;20383;-77
2021/09/03 00:23:57;;;;;;;3.20;3.00;;;19.00;96.20;;;;;;5096442;28;20070;-76
2021/09/03 00:26:23;;;;;;;3.47;3.25;;;19.10;96.20;;;;;;5096329;28;20120;-77
2021/09/03 00:28:49;;;;;;;3.70;3.38;;;19.10;96.20;;;;;;5095019;28;20065;-76
2021/09/03 00:31:14;;;;;;;3.67;3.30;;;19.10;96.30;;;;;;5095117;28;20028;-77
2021/09/03 00:33:40;;;;;;;3.92;3.50;;;19.10;96.20;;;;;;5094893;28;20031;-77
2021/09/03 00:36:06;;;;;;;4.50;3.70;;;19.00;96.30;;;;;;5094018;28;20379;-77
2021/09/03 00:38:32;;;;;;;3.67;3.38;;;19.00;96.40;;;;;;5100074;28;20545;-77
2021/09/03 00:40:58;;;;;;;3.17;2.97;;;19.00;96.40;;;;;;5098348;28;20151;-77
2021/09/03 00:43:26;;;;;;;3.83;3.53;;;19.00;96.50;;;;;;5115701;28;20090;-76
2021/09/03 00:45:51;;;;;;;3.80;3.50;;;19.00;96.50;;;;;;5116353;28;20028;-77
2021/09/03 00:48:17;;;;;;;6.03;3.72;;;19.00;96.40;;;;;;5115755;28;20103;-77
2021/09/03 00:50:44;;;;;;;3.72;3.42;;;18.90;96.40;;;;;;5116336;28;20032;-76
2021/09/03 00:53:10;;;;;;;4.10;3.38;;;18.90;96.40;;;;;;5116464;28;20095;-76
2021/09/03 00:55:36;;;;;;;4.78;3.40;;;18.90;96.50;;;;;;5115874;28;20114;-77
2021/09/03 00:58:02;;;;;;;3.30;3.10;;;18.90;96.20;;;;;;5096879;28;20035;-76
2021/09/03 01:00:27;;;;;;;6.03;3.58;;;19.00;96.20;;;;;;5116100;28;20020;-76
2021/09/03 01:02:53;;;;;;;3.53;3.20;;;19.00;96.10;;;;;;5115758;28;20518;-77
2021/09/03 01:05:22;;;;;;;3.45;3.15;;;18.90;96.00;;;;;;5115388;28;20606;-76
2021/09/03 01:07:52;;;;;;;3.10;2.90;;;18.90;96.10;;;;;;5115829;28;20015;-76
2021/09/03 01:10:22;;;;;;;3.65;3.05;;;18.90;96.10;;;;;;5115947;28;20471;-77
2021/09/03 01:12:48;;;;;;;3.45;3.17;;;19.00;96.00;;;;;;5114266;28;20028;-76
2021/09/03 01:15:14;;;;;;;3.20;3.00;;;18.90;95.90;;;;;;5115442;28;20050;-77
2021/09/03 01:17:40;;;;;;;2.97;2.78;;;18.80;96.10;;;;;;5096683;28;20119;-76
2021/09/03 01:20:08;;;;;;;3.20;2.78;;;18.80;96.10;;;;;;5115652;28;20019;-77
2021/09/03 01:22:34;;;;;;;3.00;2.80;;;18.80;96.30;;;;;;5115168;28;20026;-76
2021/09/03 01:25:00;;;;;;;2.90;2.70;;;18.70;96.30;;;;;;5115791;28;20110;-77
2021/09/03 01:27:26;;;;;;;5.85;3.05;;;18.60;96.20;;;;;;5115622;28;20097;-77
2021/09/03 01:29:52;;;;;;;3.15;2.92;;;18.60;96.60;;;;;;5115476;28;20021;-76
2021/09/03 01:32:18;;;;;;;4.50;2.85;;;18.50;96.30;;;;;;5115400;28;20024;-77
2021/09/03 01:34:44;;;;;;;3.35;3.05;;;18.60;96.40;;;;;;5114677;28;20019;-76
2021/09/03 01:37:10;;;;;;;3.47;3.22;;;18.50;96.30;;;;;;5096705;28;20039;-76
2021/09/03 01:39:36;;;;;;;2.97;2.78;;;18.40;96.60;;;;;;5114760;28;20044;-77
2021/09/03 01:42:02;;;;;;;2.97;2.72;;;18.40;96.80;;;;;;5094946;28;20145;-76
2021/09/03 01:44:28;;;;;;;3.72;3.33;;;18.40;96.80;;;;;;5114745;28;20102;-76
2021/09/03 01:46:54;;;;;;;4.00;3.22;;;18.40;96.60;;;;;;5115107;28;20438;-77
2021/09/03 01:49:20;;;;;;;3.10;2.90;;;18.40;96.50;;;;;;5114775;28;20379;-77
2021/09/03 01:51:46;;;;;;;6.25;2.90;;;18.30;96.20;;;;;;5115136;28;20035;-76
2021/09/03 01:54:12;;;;;;;3.13;2.88;;;18.30;96.50;;;;;;5114568;28;20527;-77
2021/09/03 01:56:37;;;;;;;5.95;3.38;;;18.30;96.40;;;;;;5114356;28;20039;-77
2021/09/03 01:59:03;;;;;;;2.70;2.50;;;18.30;96.20;;;;;;5114475;28;20036;-76
2021/09/03 02:01:29;;;;;;;3.03;2.83;;;18.30;96.00;;;;;;5114599;28;20024;-77
2021/09/03 02:03:55;;;;;;;3.03;2.83;;;18.30;96.00;;;;;;5114077;28;20398;-76
2021/09/03 02:06:21;;;;;;;3.78;3.33;;;18.40;95.80;;;;;;5113314;28;20020;-76
2021/09/03 02:08:47;;;;;;;3.50;2.80;;;18.30;95.70;;;;;;5114792;28;20031;-76
2021/09/03 02:11:12;;;;;;;2.70;2.50;;;18.40;95.60;;;;;;5114798;28;20136;-76
2021/09/03 02:13:38;;;;;;;3.95;2.85;;;18.40;95.40;;;;;;5114659;28;20023;-76
2021/09/03 02:16:04;;;;;;;3.10;2.90;;;18.30;95.00;;;;;;5114660;28;20035;-76
2021/09/03 02:18:31;;;;;;;4.25;3.13;;;18.40;94.90;;;;;;5096221;28;20087;-76
2021/09/03 02:20:58;;;;;;;3.65;2.90;;;18.40;94.80;;;;;;5114434;28;20431;-76
2021/09/03 02:23:24;;;;;;;3.47;3.17;;;18.40;94.50;;;;;;5114158;28;20379;-76
2021/09/03 02:25:50;;;;;;;3.58;3.28;;;18.40;94.50;;;;;;5114482;28;20111;-76
2021/09/03 02:28:16;;;;;;;3.75;2.85;;;18.40;94.20;;;;;;5114430;28;20475;-77
2021/09/03 02:30:43;;;;;;;3.88;2.80;;;18.40;94.30;;;;;;5114582;28;20115;-77
2021/09/03 02:33:09;;;;;;;7.57;2.78;;;18.30;94.30;;;;;;5096063;28;20028;-77
2021/09/03 02:35:34;;;;;;;3.63;2.88;;;18.30;94.40;;;;;;5114112;28;20632;-77
2021/09/03 02:38:00;;;;;;;3.33;3.00;;;18.30;94.40;;;;;;5114263;28;20413;-77
2021/09/03 02:40:27;;;;;;;2.95;2.63;;;18.30;94.30;;;;;;5114283;28;20031;-77
2021/09/03 02:42:53;;;;;;;2.63;2.42;;;18.30;94.20;;;;;;5114163;28;20027;-76
2021/09/03 02:45:20;;;;;;;5.03;3.03;;;18.30;94.00;;;;;;5113992;28;20079;-77
2021/09/03 02:47:45;;;;;;;3.42;2.85;;;18.30;93.90;;;;;;5114218;28;20020;-77
2021/09/03 02:50:11;;;;;;;3.28;2.92;;;18.30;93.90;;;;;;5114241;28;20039;-76
2021/09/03 02:52:37;;;;;;;3.75;2.30;;;18.40;93.90;;;;;;5095612;28;20024;-77
2021/09/03 02:55:04;;;;;;;3.35;3.05;;;18.30;93.90;;;;;;5113874;28;20028;-77
2021/09/03 02:57:29;;;;;;;3.10;2.78;;;18.20;94.00;;;;;;5113859;28;20034;-77
2021/09/03 02:59:55;;;;;;;3.22;2.97;;;18.20;94.10;;;;;;5095593;28;20020;-77
2021/09/03 03:02:21;;;;;;;3.20;2.90;;;18.20;94.10;;;;;;5095147;28;20479;-77
2021/09/03 03:04:47;;;;;;;3.25;2.97;;;18.10;94.20;;;;;;5095438;28;20102;-77
2021/09/03 03:07:12;;;;;;;4.68;3.20;;;18.10;94.20;;;;;;5095138;28;20084;-76
2021/09/03 03:09:38;;;;;;;3.53;3.05;;;18.10;94.20;;;;;;5113009;28;20543;-76
2021/09/03 03:12:04;;;;;;;3.28;2.97;;;18.10;94.10;;;;;;5095417;28;20023;-77
2021/09/03 03:14:33;;;;;;;4.82;3.05;;;18.10;94.00;;;;;;5093343;28;20038;-76
2021/09/03 03:17:01;;;;;;;3.67;3.22;;;18.10;94.00;;;;;;5093380;28;20467;-76
2021/09/03 03:19:27;;;;;;;3.10;2.88;;;18.10;94.00;;;;;;5112314;28;20053;-76
2021/09/03 03:21:54;;;;;;;3.05;2.30;;;18.10;94.10;;;;;;5113187;28;20103;-77
2021/09/03 03:24:19;;;;;;;2.90;2.70;;;18.10;94.60;;;;;;5113090;28;20023;-76
2021/09/03 03:26:46;;;;;;;3.53;3.03;;;18.10;94.20;;;;;;5113515;28;20023;-77
2021/09/03 03:29:12;;;;;;;3.25;3.05;;;18.10;94.30;;;;;;5094693;28;20028;-77
2021/09/03 03:31:38;;;;;;;3.35;3.00;;;18.00;94.50;;;;;;5113392;28;20038;-76
2021/09/03 03:34:04;;;;;;;3.65;3.10;;;18.00;94.60;;;;;;5112290;27;20039;-76
2021/09/03 03:36:30;;;;;;;3.38;3.08;;;18.00;94.60;;;;;;5094161;28;20059;-76
2021/09/03 03:38:55;;;;;;;3.53;3.22;;;18.10;94.60;;;;;;5112557;28;20092;-76
2021/09/03 03:41:22;;;;;;;3.10;2.80;;;18.10;94.50;;;;;;5112793;28;20035;-76
2021/09/03 03:43:47;;;;;;;3.40;3.10;;;18.20;94.50;;;;;;5112953;28;20027;-76
2021/09/03 03:46:13;;;;;;;4.55;3.60;;;18.20;94.40;;;;;;5112607;28;20375;-76
2021/09/03 03:48:39;;;;;;;3.00;2.80;;;18.10;94.40;;;;;;5112879;28;20036;-76
2021/09/03 03:51:05;;;;;;;3.42;2.97;;;18.20;94.50;;;;;;5113259;28;20103;-76
2021/09/03 03:53:31;;;;;;;3.17;2.80;;;18.10;94.60;;;;;;5112961;28;20447;-77
2021/09/03 03:55:57;;;;;;;4.35;2.92;;;18.20;94.60;;;;;;5113129;28;20031;-76
2021/09/03 03:58:22;;;;;;;6.15;3.58;;;18.20;94.50;;;;;;5112524;28;20039;-76
2021/09/03 04:00:48;;;;;;;3.28;2.78;;;18.20;94.60;;;;;;5112258;28;20502;-76
2021/09/03 04:03:14;;;;;;;3.50;3.20;;;18.20;94.80;;;;;;5112869;28;20028;-76
2021/09/03 04:05:40;;;;;;;3.65;3.35;;;18.10;94.90;;;;;;5112490;28;20019;-76
2021/09/03 04:08:06;;;;;;;3.70;2.92;;;18.00;95.20;;;;;;5094162;28;20031;-77
2021/09/03 04:10:32;;;;;;;3.97;2.92;;;18.00;95.50;;;;;;5112093;28;20480;-77
2021/09/03 04:12:59;;;;;;;3.47;3.17;;;17.90;95.50;;;;;;5113149;28;20546;-76
2021/09/03 04:15:24;;;;;;;4.25;3.35;;;17.90;95.80;;;;;;5112294;28;20028;-76
2021/09/03 04:17:50;;;;;;;3.80;3.50;;;17.90;95.70;;;;;;5112170;28;20035;-76
2021/09/03 04:20:16;;;;;;;4.28;3.72;;;17.90;95.90;;;;;;5112567;28;20031;-76
2021/09/03 04:22:41;;;;;;;3.35;3.08;;;17.90;96.30;;;;;;5112638;28;20027;-77
2021/09/03 04:25:08;;;;;;;4.65;2.72;;;17.90;96.10;;;;;;5112808;28;20467;-76
2021/09/03 04:27:39;;;;;;;4.72;3.50;;;17.90;96.10;;;;;;5112175;28;20406;-76
2021/09/03 04:30:06;;;;;;;3.37;3.17;;;17.80;96.30;;;;;;5112744;28;20015;-77
2021/09/03 04:32:32;;;;;;;3.67;3.38;;;17.80;96.40;;;;;;5112936;28;20024;-76
2021/09/03 04:34:58;;;;;;;5.20;3.50;;;17.80;96.30;;;;;;5112550;28;20519;-76
2021/09/03 04:37:24;;;;;;;3.35;3.05;;;17.80;96.30;;;;;;5112653;28;20020;-77
2021/09/03 04:39:49;;;;;;;3.67;3.22;;;17.80;96.30;;;;;;5112501;28;20050;-77
2021/09/03 04:42:15;;;;;;;4.07;2.55;;;17.80;96.50;;;;;;5112795;28;20057;-76
2021/09/03 04:44:41;;;;;;;3.65;3.30;;;17.80;96.60;;;;;;5112341;28;20061;-76
2021/09/03 04:47:07;;;;;;;4.70;3.83;;;17.80;96.50;;;;;;5096767;28;20032;-77
2021/09/03 04:49:33;;;;;;;3.50;3.08;;;17.80;96.50;;;;;;5116370;28;20051;-77
2021/09/03 04:51:58;;;;;;;3.90;3.08;;;17.80;96.50;;;;;;5116422;28;20024;-76
2021/09/03 04:54:24;;;;;;;3.95;3.38;;;17.80;96.70;;;;;;5115833;28;20076;-77
2021/09/03 04:56:50;;;;;;;3.88;3.58;;;17.80;96.80;;;;;;5097372;28;20096;-77
2021/09/03 04:59:16;;;;;;;4.68;3.00;;;17.80;96.80;;;;;;5115890;28;20028;-76
2021/09/03 05:01:41;;;;;;;4.13;3.38;;;17.70;96.90;;;;;;5116227;28;20019;-77
2021/09/03 05:04:07;;;;;;;3.92;3.63;;;17.70;96.90;;;;;;5116201;28;20020;-76
2021/09/03 05:06:33;;;;;;;4.53;3.08;;;17.80;96.80;;;;;;5116082;28;20435;-76
2021/09/03 05:08:59;;;;;;;6.28;3.95;;;17.80;96.90;;;;;;5116240;28;20039;-77
2021/09/03 05:11:24;;;;;;;4.07;3.30;;;17.80;96.90;;;;;;5116103;28;20138;-77
2021/09/03 05:13:50;;;;;;;4.47;3.47;;;17.80;96.80;;;;;;5116057;28;20032;-77
2021/09/03 05:16:16;;;;;;;4.20;3.53;;;17.80;96.80;;;;;;5096947;28;20028;-77
2021/09/03 05:18:41;;;;;;;3.70;3.35;;;17.80;96.70;;;;;;5114804;28;20127;-77
2021/09/03 05:21:07;;;;;;;4.03;3.65;;;17.90;96.80;;;;;;5097065;28;20114;-77
2021/09/03 05:23:34;;;;;;;3.72;3.30;;;17.90;96.80;;;;;;5096777;28;20383;-77
2021/09/03 05:25:59;;;;;;;7.25;4.35;;;17.90;96.60;;;;;;5115328;28;20023;-76
2021/09/03 05:28:27;;;;;;;5.13;4.00;;;17.80;96.70;;;;;;5114834;28;20483;-76
2021/09/03 05:30:54;;;;;;;6.25;4.05;;;17.90;97.20;;;;;;5115040;28;20371;-77
2021/09/03 05:33:20;;;;;;;4.85;3.78;;;17.90;96.70;;;;;;5115236;28;20028;-76
2021/09/03 05:35:46;;;;;;;4.03;3.63;;;18.00;96.70;;;;;;5115235;28;20019;-77
2021/09/03 05:38:12;;;;;;;4.40;3.75;;;18.00;96.40;;;;;;5096814;28;20081;-76
2021/09/03 05:40:38;;;;;;;4.18;3.88;;;18.10;96.20;;;;;;5115227;28;20032;-76
2021/09/03 05:43:04;;;;;;;4.15;3.65;;;18.20;96.00;;;;;;5114996;28;20032;-77
2021/09/03 05:45:31;;;;;;;4.15;3.75;;;18.30;95.80;;;;;;5115062;28;20027;-76
2021/09/03 05:48:00;;;;;;;3.85;3.53;;;18.40;95.60;;;;;;5115023;28;20143;-77
2021/09/03 05:50:26;;;;;;;4.03;3.63;;;18.50;95.50;;;;;;5114852;28;20016;-77
2021/09/03 05:52:51;;;;;;;8.30;3.40;;;18.60;95.40;;;;;;5115090;28;20027;-76
2021/09/03 05:55:17;;;;;;;3.78;3.40;;;18.60;95.10;;;;;;5114783;28;20031;-76
2021/09/03 05:57:43;;;;;;;7.95;3.72;;;18.70;95.00;;;;;;5114163;28;20028;-76
2021/09/03 06:00:10;;;;;;;3.78;3.40;;;18.80;94.80;;;;;;5114678;28;20019;-77
2021/09/03 06:02:36;;;;;;;6.55;3.67;;;18.80;94.90;;;;;;5114632;28;20047;-76
2021/09/03 06:05:02;;;;;;;3.65;3.33;;;18.80;94.90;;;;;;5114646;28;20479;-76
2021/09/03 06:07:28;;;;;;;3.70;3.28;;;18.90;94.90;;;;;;5115030;28;20031;-77
2021/09/03 06:09:53;;;;;;;9.77;3.33;;;18.90;94.90;;;;;;5113936;28;20019;-76
2021/09/03 06:12:19;;;;;;;6.32;4.00;;;18.90;94.90;;;;;;5114851;28;20023;-76
2021/09/03 06:14:45;;;;;;;4.82;4.10;;;19.00;95.00;;;;;;5096107;28;20395;-76
2021/09/03 06:17:12;;;;;;;4.15;3.70;;;19.10;95.00;;;;;;5114628;28;20012;-76
2021/09/03 06:19:37;;;;;;;3.58;3.33;;;19.10;95.00;;;;;;5114170;28;20080;-76
2021/09/03 06:22:03;;;;;;;3.55;3.10;;;19.10;95.00;;;;;;5114910;28;20470;-76
2021/09/03 06:24:32;;;;;;;5.35;3.85;;;19.10;95.20;;;;;;5113975;28;20035;-76
2021/09/03 06:27:05;;;;;;;5.72;3.80;;;19.10;95.30;;;;;;5114295;28;20019;-76
2021/09/03 06:29:41;;;;;;;4.18;3.63;;;19.20;95.40;;;;;;5113820;28;20020;-76
2021/09/03 06:32:13;;;;;;;4.68;3.42;;;19.20;95.50;;;;;;5113073;28;20450;-76
2021/09/03 06:34:47;;;;;;;3.80;3.45;;;19.20;95.50;;;;;;5110757;28;20035;-76
2021/09/03 06:37:13;;;;;;;5.90;3.95;;;19.20;95.50;;;;;;5113237;28;20024;-76
2021/09/03 06:39:39;;;;;;;7.53;3.25;;;19.30;95.40;;;;;;5113469;28;20039;-76
2021/09/03 06:42:06;;;;;;;5.03;3.50;;;19.40;95.20;;;;;;5095060;28;20020;-76
2021/09/03 06:44:32;;;;;;;3.70;3.40;;;19.50;95.20;;;;;;5113744;28;20094;-76
2021/09/03 06:46:58;;;;;;;3.90;3.47;;;19.60;95.30;;;;;;5113426;28;20028;-77
2021/09/03 06:49:24;;;;;;;3.90;3.60;;;19.70;95.60;;;;;;5113477;28;20029;-76
2021/09/03 06:51:51;;;;;;;3.22;2.90;;;19.70;95.50;;;;;;5107993;28;20035;-76
2021/09/03 06:54:17;;;;;;;3.80;3.47;;;19.80;95.40;;;;;;5106130;28;20026;-76
2021/09/03 06:56:43;;;;;;;3.63;3.33;;;19.80;95.30;;;;;;5110301;28;20504;-76
2021/09/03 06:59:09;;;;;;;5.82;3.85;;;19.90;95.20;;;;;;5103674;28;20348;-76
2021/09/03 07:01:35;;;;;;;5.35;3.75;;;19.90;95.70;;;;;;5107694;28;20015;-76
2021/09/03 07:04:00;;;;;;;4.32;3.92;;;20.00;96.20;;;;;;5112276;28;20028;-76
2021/09/03 07:06:26;;;;;;;3.65;3.35;;;20.00;97.30;;;;;;5111844;28;20020;-76
2021/09/03 07:08:52;;;;;;;7.47;3.80;;;20.00;97.90;;;;;;5112565;28;20016;-76
2021/09/03 07:11:18;;;;;;;5.10;4.05;;;20.20;97.60;;;;;;5112436;28;20091;-76
2021/09/03 07:13:43;;;;;;;6.47;4.18;;;20.30;96.40;;;;;;5102833;28;20074;-77
2021/09/03 07:16:09;;;;;;;4.72;3.88;;;20.30;96.60;;;;;;5111964;28;20023;-77
2021/09/03 07:18:35;;;;;;;4.90;4.45;;;20.40;96.80;;;;;;5102972;28;20099;-76
2021/09/03 07:21:01;;;;;;;7.45;4.20;;;20.40;96.70;;;;;;5111926;28;20031;-76
2021/09/03 07:23:26;;;;;;;6.13;4.32;;;20.40;97.20;;;;;;5112100;28;20020;-77
2021/09/03 07:25:52;;;;;;;5.30;3.80;;;20.50;97.10;;;;;;5111599;28;20023;-76
2021/09/03 07:28:18;;;;;;;6.22;4.35;;;20.50;96.70;;;;;;5093744;28;20027;-76
2021/09/03 07:30:44;;;;;;;4.03;3.63;;;20.50;96.80;;;;;;5101981;28;20061;-76
2021/09/03 07:33:10;;;;;;;8.82;4.20;;;20.50;97.30;;;;;;5106525;28;20104;-76
2021/09/03 07:35:36;;;;;;;5.95;3.35;;;20.60;97.30;;;;;;5095057;28;20503;-76
2021/09/03 07:38:03;;;;;;;4.45;3.28;;;20.60;97.20;;;;;;5092186;28;20039;-76
2021/09/03 07:40:32;;;;;;;5.28;3.22;;;20.70;97.30;;;;;;5108677;28;20024;-76
2021/09/03 07:43:06;;;;;;;4.30;3.20;;;20.80;95.90;;;;;;5091346;28;20057;-76
2021/09/03 07:45:36;;;;;;;4.30;3.10;;;20.90;95.80;;;;;;5106547;28;20015;-76
2021/09/03 07:48:02;;;;;;;3.13;2.92;;;20.90;95.70;;;;;;5111924;28;20050;-76
2021/09/03 07:50:28;;;;;;;3.75;3.30;;;21.00;95.20;;;;;;5109198;28;20100;-77
2021/09/03 07:52:53;;;;;;;5.82;2.90;;;21.10;94.60;;;;;;5111176;28;20023;-76
2021/09/03 07:55:19;;;;;;;5.47;2.67;;;21.10;94.10;;;;;;5105964;28;20035;-76
2021/09/03 07:57:45;;;;;;;4.15;3.20;;;21.10;94.20;;;;;;5107020;28;20474;-76
2021/09/03 08:00:11;;;;;;;4.70;3.28;;;21.20;92.90;;;;;;5111409;28;20047;-76
2021/09/03 08:02:37;;;;;;;6.13;3.00;;;21.20;92.60;;;;;;5111510;28;20479;-76
2021/09/03 08:05:05;;;;;;;5.72;3.38;;;21.20;93.10;;;;;;5110457;28;20031;-76
2021/09/03 08:07:31;;;;;;;7.18;2.95;;;21.20;92.60;;;;;;5107638;28;20016;-76
2021/09/03 08:09:57;;;;;;;3.38;3.08;;;21.30;92.10;;;;;;5092589;28;20145;-76
2021/09/03 08:12:23;;;;;;;4.57;3.50;;;21.30;92.90;;;;;;5106078;28;20098;-76
2021/09/03 08:14:50;;;;;;;3.25;3.03;;;21.30;93.00;;;;;;5091706;28;20016;-76
2021/09/03 08:17:15;;;;;;;6.80;4.13;;;21.30;92.00;;;;;;5102260;28;20119;-76
2021/09/03 08:19:41;;;;;;;3.33;3.03;;;21.50;91.10;;;;;;5108849;28;20704;-76
2021/09/03 08:22:07;;;;;;;3.92;3.45;;;21.50;90.50;;;;;;5113364;28;20059;-76
2021/09/03 08:24:33;;;;;;;6.10;3.70;;;21.60;90.50;;;;;;5115194;28;20460;-76
2021/09/03 08:26:59;;;;;;;4.95;2.90;;;21.70;90.30;;;;;;5095479;28;20076;-76
2021/09/03 08:29:25;;;;;;;4.53;3.22;;;21.70;89.60;;;;;;5114307;28;20496;-76
2021/09/03 08:31:50;;;;;;;3.58;3.28;;;21.70;89.60;;;;;;5115532;28;20027;-76
2021/09/03 08:34:17;;;;;;;3.70;3.00;;;21.80;89.20;;;;;;5112972;28;20047;-76
2021/09/03 08:36:43;;;;;;;4.53;3.05;;;21.80;88.30;;;;;;5111631;28;20471;-76
2021/09/03 08:39:09;;;;;;;5.53;3.20;;;21.90;88.10;;;;;;5113860;28;20039;-76
2021/09/03 08:41:36;;;;;;;4.10;3.17;;;21.90;87.80;;;;;;5114851;28;20555;-76
2021/09/03 08:44:02;;;;;;;4.45;2.80;;;21.90;89.20;;;;;;5113605;28;20483;-76
2021/09/03 08:46:29;;;;;;;3.45;3.15;;;22.00;87.20;;;;;;5113590;28;20027;-76
2021/09/03 08:48:55;;;;;;;4.00;3.00;;;22.10;89.80;;;;;;5094043;28;20052;-76
2021/09/03 08:51:21;;;;;;;3.33;3.03;;;22.20;89.70;;;;;;5097008;28;20066;-76
2021/09/03 08:53:47;;;;;;;4.60;2.97;;;22.10;88.60;;;;;;5099410;28;20047;-76
2021/09/03 08:56:13;;;;;;;3.67;3.17;;;22.10;87.30;;;;;;5114075;28;20059;-76
2021/09/03 08:58:41;;;;;;;6.07;3.35;;;22.20;87.20;;;;;;5109264;28;20028;-76
2021/09/03 09:01:12;;;;;;;6.78;3.22;;;22.20;86.50;;;;;;5112992;28;20039;-76
2021/09/03 09:03:40;;;;;;;3.67;3.37;;;22.10;86.50;;;;;;5094192;28;20061;-76
2021/09/03 09:06:07;;;;;;;3.65;3.35;;;22.20;87.90;;;;;;5112077;28;20379;-76
2021/09/03 09:08:57;;;;;;;3.80;3.17;;;22.40;89.00;;;;;;5108272;28;20712;-76
2021/09/03 09:11:28;;;;;;;3.10;2.90;;;22.40;89.00;;;;;;5112584;28;20072;-76
2021/09/03 09:14:01;;;;;;;3.97;3.30;;;22.40;88.90;;;;;;5104284;28;20027;-76
2021/09/03 09:16:30;;;;;;;5.50;3.10;;;22.50;88.60;;;;;;5113896;28;20070;-76
2021/09/03 09:18:58;;;;;;;4.03;3.60;;;22.60;89.20;;;;;;5110034;28;20026;-76
2021/09/03 09:21:38;;;;;;;3.00;2.78;;;22.70;89.10;;;;;;5110176;28;20487;-76
2021/09/03 09:24:13;;;;;;;3.25;3.05;;;22.80;89.20;;;;;;5111748;28;20633;-76
2021/09/03 09:26:49;;;;;;;6.00;3.67;;;22.80;88.80;;;;;;5112378;28;20066;-76
2021/09/03 09:29:38;;;;;;;3.15;2.95;;;22.90;88.10;;;;;;5095850;28;20387;-76
2021/09/03 09:32:12;;;;;;;3.70;3.25;;;22.80;87.10;;;;;;5107233;28;20019;-76
2021/09/03 09:34:43;;;;;;;6.93;3.47;;;22.90;87.50;;;;;;5111941;28;20042;-76
2021/09/03 09:37:18;;;;;;;3.45;3.17;;;22.90;86.40;;;;;;5106718;28;20081;-76
2021/09/03 09:39:56;;;;;;;3.53;3.22;;;22.90;87.10;;;;;;5114917;28;20039;-76
2021/09/03 09:42:24;;;;;;;6.05;3.28;;;23.00;87.60;;;;;;5114879;28;20016;-76
2021/09/03 09:45:11;;;;;;;4.72;3.35;;;22.90;86.90;;;;;;5115148;28;20092;-76
2021/09/03 09:47:38;;;;;;;4.93;3.55;;;23.10;84.60;;;;;;5096736;28;20106;-76
2021/09/03 09:50:22;;;;;;;3.15;2.85;;;23.10;85.10;;;;;;5096890;28;20020;-76
2021/09/03 09:52:48;;;;;;;5.05;3.30;;;23.30;83.80;;;;;;5115297;28;20023;-76
2021/09/03 09:55:14;;;;;;;3.10;2.80;;;23.40;84.20;;;;;;5114512;28;20023;-76
2021/09/03 09:57:41;;;;;;;3.80;2.90;;;23.30;84.00;;;;;;5113445;28;20016;-76
2021/09/03 10:00:12;;;;;;;5.30;3.85;;;23.40;84.00;;;;;;5113356;28;20115;-76
2021/09/03 10:02:38;;;;;;;4.38;3.35;;;23.50;80.60;;;;;;5113868;28;20028;-76
2021/09/03 10:05:05;;;;;;;3.72;3.10;;;23.50;77.50;;;;;;5095536;28;20027;-76
2021/09/03 10:07:32;;;;;;;5.22;2.88;;;23.40;80.80;;;;;;5113583;28;20642;-76
2021/09/03 10:09:58;;;;;;;5.93;3.33;;;23.50;83.00;;;;;;5113698;28;20073;-76
2021/09/03 10:12:24;;;;;;;5.32;3.08;;;23.50;84.30;;;;;;5113667;28;20487;-76
2021/09/03 10:14:50;;;;;;;6.25;3.67;;;23.50;83.60;;;;;;5113654;28;20028;-76
2021/09/03 10:17:19;;;;;;;3.60;3.28;;;23.50;84.50;;;;;;5114569;28;20100;-76
2021/09/03 10:19:51;;;;;;;4.30;3.20;;;23.70;83.90;;;;;;5114261;28;20387;-76
2021/09/03 10:22:20;;;;;;;4.30;3.90;;;23.80;81.00;;;;;;5114575;28;20019;-76
2021/09/03 10:24:47;;;;;;;7.85;3.80;;;23.80;81.10;;;;;;5114541;28;20019;-76
2021/09/03 10:27:14;;;;;;;3.88;3.35;;;23.90;78.80;;;;;;5114724;28;20490;-76
2021/09/03 10:29:41;;;;;;;4.85;3.65;;;23.80;79.40;;;;;;5109107;28;20379;-76
2021/09/03 10:32:07;;;;;;;4.43;3.92;;;23.90;80.50;;;;;;5075769;28;20517;-76
2021/09/03 10:34:49;;;;;;;7.35;3.92;;;24.10;79.90;;;;;;5106885;28;20463;-76
2021/09/03 10:37:15;;;;;;;;;;;24.20;78.60;;;;;;5096624;28;20088;-76
2021/09/03 10:39:45;;;;;;;3.78;3.35;;;24.20;77.30;;;;;;5114199;28;19929;-76
2021/09/03 10:42:11;;;;;;;5.70;3.30;;;24.20;78.30;;;;;;5096030;28;20028;-76
2021/09/03 10:45:05;;;;;;;6.07;3.65;;;24.20;78.20;;;;;;5113922;28;20016;-76
2021/09/03 10:47:31;;;;;;;5.78;3.08;;;24.40;76.70;;;;;;5114275;28;20076;-76
2021/09/03 10:49:58;;;;;;;4.88;3.60;;;24.50;79.10;;;;;;5114466;28;20028;-76
2021/09/03 10:52:23;;;;;;;7.03;3.80;;;24.50;76.80;;;;;;5114395;28;20023;-76
2021/09/03 10:54:49;;;;;;;3.72;2.95;;;24.50;80.40;;;;;;5114538;28;20023;-76
2021/09/03 10:57:16;;;;;;;6.32;2.92;;;24.60;79.10;;;;;;5114434;28;20027;-76
2021/09/03 11:00:16;;;;;;;5.55;3.58;;;24.90;79.60;;;;;;5113931;28;20057;-76
2021/09/03 11:02:42;;;;;;;3.63;3.33;;;25.00;79.40;;;;;;5113811;28;20073;-76
2021/09/03 11:05:13;;;;;;;6.85;3.25;;;25.00;77.30;;;;;;5113695;28;20019;-76
2021/09/03 11:07:46;;;;;;;8.80;3.70;;;25.10;77.50;;;;;;5113687;28;20069;-76
2021/09/03 11:10:22;;;;;;;4.18;3.30;;;25.00;73.10;;;;;;5095223;28;20363;-76
2021/09/03 11:12:52;;;;;;;3.55;3.25;;;25.00;74.30;;;;;;5113632;28;20023;-76
2021/09/03 11:15:18;;;;;;;9.52;3.67;;;25.00;78.40;;;;;;5113580;28;20027;-76
2021/09/03 11:17:45;;;;;;;4.45;3.70;;;25.00;78.90;;;;;;5113494;28;20102;-76
2021/09/03 11:20:13;;;;;;;4.93;3.42;;;25.10;76.10;;;;;;5113699;28;20047;-75
2021/09/03 11:22:39;;;;;;;8.02;3.38;;;25.30;74.40;;;;;;5113058;28;20026;-76
2021/09/03 11:25:07;;;;;;;4.38;3.72;;;25.30;72.80;;;;;;5113216;28;20019;-76
2021/09/03 11:27:35;;;;;;;4.32;3.38;;;25.30;74.60;;;;;;5113383;28;20107;-76
2021/09/03 11:30:05;;;;;;;6.82;3.72;;;25.40;72.60;;;;;;5113472;28;20048;-76
2021/09/03 11:32:34;;;;;;;9.73;3.40;;;25.50;72.40;;;;;;5111345;28;20016;-76
2021/09/03 11:35:03;;;;;;;5.50;3.08;;;25.60;70.80;;;;;;5106067;28;20024;-76
2021/09/03 11:37:37;;;;;;;4.40;3.92;;;25.60;70.80;;;;;;5087515;28;20024;-76
2021/09/03 11:40:30;;;;;;;5.07;3.40;;;25.50;71.30;;;;;;5111087;28;20391;-74
2021/09/03 11:42:59;;;;;;;9.93;3.83;;;25.30;69.30;;;;;;5093862;28;20039;-76
2021/09/03 11:45:40;;;;;;;5.18;3.92;;;25.40;71.40;;;;;;5111725;28;20023;-76
2021/09/03 11:48:08;;;;;;;4.18;3.67;;;25.40;68.00;;;;;;5112809;28;20482;-76
2021/09/03 11:50:45;;;;;;;3.80;3.50;;;25.40;71.50;;;;;;5109435;28;20031;-76
2021/09/03 11:53:29;;;;;;;4.47;3.10;;;25.50;74.50;;;;;;5107269;28;20019;-76
2021/09/03 11:55:55;;;;;;;3.90;3.08;;;25.40;72.30;;;;;;5109274;28;20051;-76
2021/09/03 11:58:25;;;;;;;4.43;2.97;;;25.40;69.40;;;;;;5110258;28;20051;-74
2021/09/03 12:00:53;;;;;;;3.45;2.97;;;25.60;68.30;;;;;;5091843;28;20081;-74
2021/09/03 12:03:29;;;;;;;3.72;3.30;;;25.60;67.90;;;;;;5111525;28;20085;-74
2021/09/03 12:05:55;;;;;;;3.85;3.42;;;25.70;67.80;;;;;;5112379;28;20020;-73
2021/09/03 12:08:26;;;;;;;8.95;3.45;;;25.80;68.00;;;;;;5093893;28;20027;-73
2021/09/03 12:11:05;;;;;;;5.28;3.17;;;25.90;68.00;;;;;;5112015;28;20031;-74
2021/09/03 12:14:04;;;;;;;4.65;3.70;;;25.90;69.60;;;;;;5091818;28;20050;-74
2021/09/03 12:16:32;;;;;;;3.30;3.00;;;26.00;70.30;;;;;;5095194;28;20628;-74
2021/09/03 12:19:01;;;;;;;7.85;3.20;;;26.20;68.60;;;;;;5094388;28;20106;-74
2021/09/03 12:21:32;;;;;;;5.72;2.80;;;26.20;65.80;;;;;;5112902;28;20161;-74
2021/09/03 12:24:00;;;;;;;4.15;2.88;;;26.20;63.40;;;;;;5091394;28;20426;-75
2021/09/03 12:26:47;;;;;;;3.00;2.80;;;26.20;62.70;;;;;;5109391;28;20030;-74
2021/09/03 12:29:15;;;;;;;5.93;2.70;;;26.20;63.00;;;;;;5091267;28;20027;-74
2021/09/03 12:31:54;;;;;;;2.92;2.38;;;26.10;59.50;;;;;;5112145;28;20023;-75
2021/09/03 12:34:24;;;;;;;3.13;2.60;;;26.20;62.60;;;;;;5108208;28;20024;-75
2021/09/03 12:36:59;;;;;;;4.63;2.63;;;26.20;63.90;;;;;;5111009;28;20015;-74
2021/09/03 12:39:26;;;;;;;3.08;2.78;;;26.30;63.00;;;;;;5092247;28;20040;-75
2021/09/03 12:41:52;;;;;;;5.10;3.65;;;26.30;61.70;;;;;;5111148;28;20543;-75
2021/09/03 12:44:23;;;;;;;3.40;2.90;;;26.30;61.80;;;;;;5093182;28;20157;-75
2021/09/03 12:46:50;;;;;;;3.58;3.13;;;26.30;60.80;;;;;;5111950;28;20047;-75
2021/09/03 12:49:26;;;;;;;2.67;2.47;;;26.30;60.20;;;;;;5112087;28;20075;-75
2021/09/03 12:52:04;;;;;;;2.67;2.47;;;26.40;59.50;;;;;;5112117;28;20509;-75